Time;durP1;ratioP1;P1;durP2;ratioP2;P2;SDS_P1;SDS_P2;PMS_P1;PMS_P2;Temp;Humidity;BMP_temperature;BMP_pressure;BME280_temperature;BME280_humidity;BME280_pressure;Samples;Min_cycle;Max_cycle;Signal;HPM_P1;HPM_P2
2022/05/13 00:02:11;;;;;;;14.77;1.70;;;13.30;99.90;;;;;;5025214;28;20017;-70
2022/05/13 00:04:38;;;;;;;9.45;1.80;;;13.30;99.90;;;;;;5009204;28;20022;-72
2022/05/13 00:07:04;;;;;;;8.10;1.50;;;13.30;99.90;;;;;;5005850;28;20302;-70
2022/05/13 00:12:17;;;;;;;17.73;1.80;;;13.30;99.90;;;;;;5006087;28;20022;-71
2022/05/13 00:14:44;;;;;;;16.15;2.22;;;13.30;99.90;;;;;;5005741;28;20026;-68
2022/05/13 00:17:10;;;;;;;12.45;1.95;;;13.20;99.90;;;;;;4989360;28;20033;-71
2022/05/13 00:19:37;;;;;;;16.15;2.08;;;13.20;99.90;;;;;;5005685;28;20027;-70
2022/05/13 00:22:03;;;;;;;15.18;1.77;;;13.20;99.90;;;;;;5005551;28;20065;-71
2022/05/13 00:24:29;;;;;;;13.68;1.70;;;13.10;99.80;;;;;;5005553;28;20063;-67
2022/05/13 00:26:54;;;;;;;12.82;2.08;;;13.10;99.80;;;;;;5006737;28;20102;-71
2022/05/13 00:29:20;;;;;;;7.78;1.55;;;13.10;99.80;;;;;;4988643;28;20065;-68
2022/05/13 00:31:46;;;;;;;14.70;2.28;;;13.00;99.60;;;;;;5005420;28;20026;-69
2022/05/13 00:34:13;;;;;;;14.77;2.35;;;13.00;99.40;;;;;;4988910;28;20019;-71
2022/05/13 00:36:39;;;;;;;9.73;1.58;;;13.00;99.30;;;;;;5005384;28;20385;-68
2022/05/13 00:39:06;;;;;;;11.27;1.63;;;12.90;99.10;;;;;;5005989;28;20022;-69
2022/05/13 00:41:32;;;;;;;12.50;2.20;;;12.90;99.10;;;;;;5005556;28;20081;-69
2022/05/13 00:43:58;;;;;;;13.25;2.08;;;12.90;99.10;;;;;;4989427;28;20361;-68
2022/05/13 00:46:26;;;;;;;10.68;1.50;;;12.90;99.20;;;;;;4994303;28;20022;-68
2022/05/13 00:48:52;;;;;;;14.90;2.30;;;12.80;99.30;;;;;;5005094;28;20019;-68
2022/05/13 00:51:21;;;;;;;13.27;1.90;;;12.80;99.50;;;;;;5005146;28;20077;-68
2022/05/13 00:53:47;;;;;;;12.00;1.80;;;12.80;99.40;;;;;;5006154;28;20025;-69
2022/05/13 00:56:13;;;;;;;17.90;2.38;;;12.80;99.40;;;;;;5005119;28;20305;-68
2022/05/13 00:58:43;;;;;;;9.00;1.90;;;12.80;99.50;;;;;;5005156;28;20218;-68
2022/05/13 01:01:09;;;;;;;17.50;2.03;;;12.80;99.50;;;;;;5003382;28;20026;-68
2022/05/13 01:03:36;;;;;;;10.07;2.10;;;12.80;99.70;;;;;;5005897;28;20034;-69
2022/05/13 01:06:05;;;;;;;17.80;2.30;;;12.90;99.90;;;;;;5026136;28;20022;-68
2022/05/13 01:08:32;;;;;;;10.90;2.13;;;12.80;99.90;;;;;;5044058;28;20296;-68
2022/05/13 01:11:01;;;;;;;12.82;1.73;;;12.80;99.90;;;;;;5028301;28;20018;-69
2022/05/13 01:13:29;;;;;;;15.35;3.17;;;12.90;99.90;;;;;;5028202;28;20025;-68
2022/05/13 01:15:56;;;;;;;14.57;1.70;;;12.80;99.90;;;;;;5027427;28;20022;-69
2022/05/13 01:18:33;;;;;;;12.82;1.85;;;12.80;99.90;;;;;;5027805;28;20029;-70
2022/05/13 01:20:59;;;;;;;16.48;2.47;;;12.80;99.90;;;;;;5028092;28;20028;-68
2022/05/13 01:23:31;;;;;;;14.77;2.10;;;12.80;99.90;;;;;;5044855;28;20017;-68
2022/05/13 01:26:05;;;;;;;14.30;2.47;;;12.80;99.90;;;;;;5044296;28;20063;-70
2022/05/13 01:28:37;;;;;;;17.95;2.58;;;12.80;99.90;;;;;;5043926;28;20029;-70
2022/05/13 01:31:07;;;;;;;11.20;1.98;;;12.80;99.90;;;;;;5043574;28;20311;-68
2022/05/13 01:33:33;;;;;;;12.13;2.30;;;12.90;99.90;;;;;;5027937;28;20025;-68
2022/05/13 01:36:02;;;;;;;13.70;1.98;;;12.80;99.90;;;;;;5044809;28;20025;-68
2022/05/13 01:38:32;;;;;;;15.55;2.20;;;12.90;99.90;;;;;;5027580;28;20049;-69
2022/05/13 01:40:58;;;;;;;16.90;1.75;;;12.90;99.90;;;;;;5027488;28;20092;-68
2022/05/13 01:43:26;;;;;;;14.07;2.00;;;13.00;99.90;;;;;;5043579;28;20025;-69
2022/05/13 01:45:52;;;;;;;13.50;1.77;;;13.00;99.90;;;;;;5042282;28;20025;-68
2022/05/13 01:48:19;;;;;;;21.60;2.75;;;12.90;99.90;;;;;;5006790;28;20022;-68
2022/05/13 01:50:45;;;;;;;10.38;2.17;;;12.90;99.90;;;;;;5023668;28;20022;-67
2022/05/13 01:53:11;;;;;;;14.18;2.10;;;12.80;99.90;;;;;;5024657;28;20244;-68
2022/05/13 01:55:42;;;;;;;21.88;2.63;;;12.80;99.90;;;;;;5023599;28;20021;-68
2022/05/13 01:58:09;;;;;;;13.40;2.22;;;12.80;99.90;;;;;;5022809;28;20054;-69
2022/05/13 02:00:35;;;;;;;17.75;3.35;;;12.80;99.90;;;;;;5021392;28;20029;-69
2022/05/13 02:05:46;;;;;;;15.13;3.40;;;12.80;99.90;;;;;;5018383;28;20091;-68
2022/05/13 02:08:13;;;;;;;16.25;2.45;;;12.80;99.90;;;;;;5043036;28;20029;-68
2022/05/13 02:10:38;;;;;;;15.00;2.15;;;12.80;99.90;;;;;;5042926;28;20020;-69
2022/05/13 02:13:04;;;;;;;10.43;1.85;;;12.80;99.90;;;;;;5043089;28;20021;-70
2022/05/13 02:15:30;;;;;;;21.00;2.67;;;12.70;99.90;;;;;;5043527;28;20096;-68
2022/05/13 02:17:56;;;;;;;14.05;2.22;;;12.70;99.90;;;;;;5026712;28;20033;-68
2022/05/13 02:20:22;;;;;;;14.32;2.33;;;12.70;99.90;;;;;;5026233;28;20059;-69
2022/05/13 02:22:47;;;;;;;21.02;2.35;;;12.70;99.90;;;;;;5042646;28;20103;-68
2022/05/13 02:25:13;;;;;;;17.73;2.72;;;12.70;99.90;;;;;;5043064;28;20028;-69
2022/05/13 02:27:39;;;;;;;11.88;2.28;;;12.70;99.90;;;;;;5044454;28;20088;-69
2022/05/13 02:30:06;;;;;;;18.02;2.42;;;12.70;99.90;;;;;;5026409;28;20036;-69
2022/05/13 02:32:31;;;;;;;17.63;2.35;;;12.70;99.90;;;;;;5042578;28;20088;-69
2022/05/13 02:34:57;;;;;;;14.07;2.65;;;12.70;99.90;;;;;;5042957;28;20071;-70
2022/05/13 02:37:23;;;;;;;20.58;2.63;;;12.70;99.90;;;;;;5042755;28;20022;-68
2022/05/13 02:39:49;;;;;;;22.75;3.03;;;12.70;99.90;;;;;;5042881;28;20101;-70
2022/05/13 02:42:15;;;;;;;16.35;2.55;;;12.60;99.90;;;;;;5009702;28;20028;-70
2022/05/13 02:44:41;;;;;;;16.02;2.45;;;12.70;99.90;;;;;;5043885;28;20103;-69
2022/05/13 02:47:07;;;;;;;23.63;4.00;;;12.70;99.90;;;;;;5032973;28;20025;-69
2022/05/13 02:49:32;;;;;;;19.10;2.83;;;12.70;99.90;;;;;;5022771;28;20233;-69
2022/05/13 02:51:58;;;;;;;17.08;2.95;;;12.70;99.90;;;;;;5022479;28;20053;-69
2022/05/13 02:54:24;;;;;;;21.25;2.70;;;12.70;99.90;;;;;;5022746;28;20024;-69
2022/05/13 02:56:49;;;;;;;15.52;2.42;;;12.70;99.90;;;;;;5007846;28;20053;-69
2022/05/13 02:59:15;;;;;;;17.95;3.53;;;12.70;99.90;;;;;;5006293;28;20088;-70
2022/05/13 03:01:41;;;;;;;16.30;2.67;;;12.70;99.90;;;;;;5025224;28;20029;-69
2022/05/13 03:04:07;;;;;;;12.55;2.60;;;12.70;99.90;;;;;;5010598;28;20037;-69
2022/05/13 03:06:32;;;;;;;20.88;3.55;;;12.70;99.90;;;;;;5041253;28;20025;-68
2022/05/13 03:08:58;;;;;;;17.00;2.60;;;12.60;99.90;;;;;;5030147;28;20021;-69
2022/05/13 03:11:24;;;;;;;14.07;2.50;;;12.60;99.90;;;;;;5013707;28;20055;-69
2022/05/13 03:13:51;;;;;;;17.27;3.03;;;12.60;99.90;;;;;;5046326;28;20028;-70
2022/05/13 03:16:22;;;;;;;17.33;2.40;;;12.60;99.90;;;;;;5030236;28;20043;-69
2022/05/13 03:18:49;;;;;;;19.30;3.47;;;12.60;99.90;;;;;;5046491;28;20224;-69
2022/05/13 03:21:15;;;;;;;15.98;2.42;;;12.60;99.90;;;;;;5046035;28;20029;-69
2022/05/13 03:23:43;;;;;;;13.68;2.40;;;12.60;99.90;;;;;;5013340;28;20084;-70
2022/05/13 03:26:11;;;;;;;20.40;2.80;;;12.60;99.90;;;;;;5046349;28;20339;-69
2022/05/13 03:28:38;;;;;;;18.95;2.85;;;12.60;99.90;;;;;;5030101;28;20335;-69
2022/05/13 03:31:04;;;;;;;17.25;2.50;;;12.60;99.90;;;;;;5029192;28;20084;-70
2022/05/13 03:33:30;;;;;;;18.73;2.47;;;12.60;99.90;;;;;;5046238;28;20041;-69
2022/05/13 03:35:56;;;;;;;17.23;2.60;;;12.70;99.90;;;;;;5046090;28;20313;-69
2022/05/13 03:38:22;;;;;;;21.73;2.53;;;12.60;99.90;;;;;;5047106;28;20071;-70
2022/05/13 03:40:48;;;;;;;21.88;2.60;;;12.60;99.90;;;;;;5047535;28;20025;-70
2022/05/13 03:43:15;;;;;;;20.02;2.92;;;12.60;99.90;;;;;;5029015;28;20021;-69
2022/05/13 03:45:41;;;;;;;18.90;2.95;;;12.60;99.90;;;;;;5029324;28;20085;-69
2022/05/13 03:48:08;;;;;;;14.85;2.90;;;12.60;99.90;;;;;;5010645;28;20026;-70
2022/05/13 03:50:36;;;;;;;13.02;2.38;;;12.60;99.90;;;;;;5025689;28;20021;-69
2022/05/13 03:53:03;;;;;;;19.55;3.58;;;12.60;99.90;;;;;;5026221;28;20080;-69
2022/05/13 03:55:29;;;;;;;20.23;3.17;;;12.60;99.90;;;;;;5010053;28;20022;-69
2022/05/13 03:57:55;;;;;;;23.45;3.00;;;12.50;99.90;;;;;;5025842;28;20245;-70
2022/05/13 04:00:22;;;;;;;23.23;3.40;;;12.60;99.90;;;;;;5025664;28;20028;-70
2022/05/13 04:02:47;;;;;;;14.57;2.88;;;12.50;99.90;;;;;;5007884;28;20032;-70
2022/05/13 04:10:46;;;;;;;14.70;3.00;;;12.50;99.90;;;;;;5032333;28;20017;-70
2022/05/13 04:16:04;;;;;;;19.48;2.40;;;12.50;99.90;;;;;;5032130;28;20013;-69
2022/05/13 04:18:34;;;;;;;15.38;2.17;;;12.50;99.90;;;;;;5029891;28;20045;-69
2022/05/13 04:21:04;;;;;;;32.53;3.10;;;12.50;99.90;;;;;;5046459;28;20021;-70
2022/05/13 04:23:30;;;;;;;22.40;3.10;;;12.50;99.90;;;;;;5045054;28;20021;-71
2022/05/13 04:25:56;;;;;;;18.95;2.13;;;12.50;99.90;;;;;;5028874;28;20323;-69
2022/05/13 04:28:21;;;;;;;19.15;2.63;;;12.60;99.90;;;;;;5028901;28;20022;-69
2022/05/13 04:30:47;;;;;;;18.10;3.00;;;12.60;99.90;;;;;;5045513;28;20049;-70
2022/05/13 04:33:14;;;;;;;17.55;2.70;;;12.70;99.90;;;;;;5044867;28;20025;-69
2022/05/13 04:35:40;;;;;;;21.92;3.75;;;12.70;99.90;;;;;;5044317;28;20017;-69
2022/05/13 04:38:07;;;;;;;19.70;2.95;;;12.70;99.90;;;;;;5045124;28;20025;-70
2022/05/13 04:40:33;;;;;;;22.92;3.65;;;12.70;99.90;;;;;;5028160;28;20030;-69
2022/05/13 04:43:00;;;;;;;20.75;3.25;;;12.70;99.90;;;;;;5045820;28;20029;-70
2022/05/13 04:45:29;;;;;;;18.30;2.63;;;12.80;99.90;;;;;;5044921;28;20026;-69
2022/05/13 04:50:50;;;;;;;23.95;2.97;;;12.80;99.90;;;;;;5011755;28;20014;-69
2022/05/13 04:53:20;;;;;;;20.17;3.70;;;12.80;99.90;;;;;;5024765;28;20093;-69
2022/05/13 04:55:47;;;;;;;16.83;3.15;;;12.80;99.90;;;;;;5007777;28;20025;-69
2022/05/13 04:58:12;;;;;;;19.92;2.83;;;12.80;99.90;;;;;;5022717;28;20104;-68
2022/05/13 05:00:38;;;;;;;24.08;2.90;;;12.80;99.90;;;;;;5008234;28;20205;-69
2022/05/13 05:03:04;;;;;;;24.80;2.88;;;12.80;99.90;;;;;;5005691;28;20021;-69
2022/05/13 05:05:29;;;;;;;18.85;2.90;;;12.80;99.90;;;;;;5030826;28;20017;-69
2022/05/13 05:07:55;;;;;;;20.15;2.80;;;12.80;99.90;;;;;;5045418;28;20317;-70
2022/05/13 05:10:22;;;;;;;22.38;2.40;;;12.80;99.90;;;;;;5044417;28;20064;-69
2022/05/13 05:12:53;;;;;;;20.75;2.83;;;12.80;99.90;;;;;;5027882;28;20021;-70
2022/05/13 05:15:19;;;;;;;23.48;3.75;;;12.80;99.90;;;;;;5044075;28;20115;-70
2022/05/13 05:17:44;;;;;;;22.65;2.88;;;12.80;99.90;;;;;;5010947;28;20033;-70
2022/05/13 05:20:11;;;;;;;19.05;2.60;;;12.80;99.90;;;;;;5043903;28;20043;-69
2022/05/13 05:22:37;;;;;;;22.88;2.75;;;12.80;99.90;;;;;;5027021;28;20052;-69
2022/05/13 05:25:04;;;;;;;17.90;2.70;;;12.90;99.90;;;;;;5026724;28;20029;-69
2022/05/13 05:27:30;;;;;;;15.98;2.65;;;12.90;99.90;;;;;;5027572;28;20025;-69
2022/05/13 05:29:55;;;;;;;16.73;2.47;;;13.00;99.90;;;;;;5027363;28;20355;-69
2022/05/13 05:32:21;;;;;;;19.80;2.67;;;13.00;99.90;;;;;;5044188;28;20017;-69
2022/05/13 05:34:47;;;;;;;18.33;2.42;;;13.00;99.90;;;;;;5027059;28;20049;-70
2022/05/13 05:37:12;;;;;;;27.15;3.03;;;13.00;99.90;;;;;;5043631;28;20033;-70
2022/05/13 05:39:38;;;;;;;17.23;2.67;;;13.10;99.90;;;;;;5043641;28;20052;-70
2022/05/13 05:42:05;;;;;;;20.67;2.55;;;13.10;99.90;;;;;;5044529;28;20017;-70
2022/05/13 05:44:30;;;;;;;19.70;2.70;;;13.20;99.90;;;;;;5044071;28;20316;-70
2022/05/13 05:46:58;;;;;;;24.27;2.80;;;13.20;99.90;;;;;;5016738;28;20068;-70
2022/05/13 05:49:24;;;;;;;14.80;2.35;;;13.30;99.90;;;;;;5023636;28;20085;-69
2022/05/13 05:51:49;;;;;;;19.15;2.95;;;13.30;99.90;;;;;;5024679;28;20026;-69
2022/05/13 05:57:16;;;;;;;21.20;3.15;;;13.30;99.90;;;;;;5023337;28;20041;-69
2022/05/13 05:59:44;;;;;;;20.27;2.83;;;13.30;99.90;;;;;;5008653;28;20045;-70
2022/05/13 06:02:11;;;;;;;21.98;3.30;;;13.30;99.90;;;;;;5023328;28;20045;-69
2022/05/13 06:04:37;;;;;;;14.80;2.55;;;13.30;99.90;;;;;;5004636;28;20096;-69
2022/05/13 06:07:05;;;;;;;25.73;3.00;;;13.30;99.90;;;;;;5023002;28;20029;-69
2022/05/13 06:09:31;;;;;;;20.55;3.08;;;13.30;99.90;;;;;;5006854;28;20021;-69
2022/05/13 06:11:57;;;;;;;17.67;2.55;;;13.30;99.90;;;;;;5006915;28;20025;-68
2022/05/13 06:14:22;;;;;;;16.55;3.05;;;13.40;99.90;;;;;;5006397;28;20096;-69
2022/05/13 06:16:48;;;;;;;19.88;2.95;;;13.40;99.90;;;;;;5022820;28;20029;-69
2022/05/13 06:19:14;;;;;;;20.33;2.97;;;13.40;99.90;;;;;;5023133;28;20061;-69
2022/05/13 06:21:40;;;;;;;19.13;2.70;;;13.40;99.90;;;;;;5022829;28;20372;-69
2022/05/13 06:24:07;;;;;;;25.75;3.03;;;13.50;99.90;;;;;;5006320;28;20026;-70
2022/05/13 06:26:32;;;;;;;23.70;2.60;;;13.50;99.90;;;;;;5006876;28;20017;-70
2022/05/13 06:28:59;;;;;;;22.45;2.90;;;13.70;99.90;;;;;;5024007;28;20032;-69
2022/05/13 06:31:26;;;;;;;21.85;2.55;;;13.80;99.90;;;;;;5006452;28;20058;-69
2022/05/13 06:33:53;;;;;;;18.25;2.63;;;13.90;99.90;;;;;;5022796;28;20033;-70
2022/05/13 06:36:18;;;;;;;22.20;2.83;;;13.90;99.90;;;;;;5022383;28;20283;-70
2022/05/13 06:38:44;;;;;;;18.52;3.92;;;13.80;99.90;;;;;;5022986;28;20026;-70
2022/05/13 06:41:10;;;;;;;18.05;2.75;;;13.80;99.90;;;;;;5024007;28;20036;-70
2022/05/13 06:43:35;;;;;;;16.42;2.25;;;13.90;99.90;;;;;;5006528;28;20060;-70
2022/05/13 06:46:02;;;;;;;25.15;3.13;;;13.80;99.90;;;;;;5006260;28;20034;-69
2022/05/13 06:48:28;;;;;;;20.73;2.78;;;13.90;99.90;;;;;;5022976;28;20030;-70
2022/05/13 06:50:53;;;;;;;14.85;2.10;;;13.90;99.90;;;;;;5024478;28;20022;-70
2022/05/13 06:53:21;;;;;;;24.13;2.42;;;14.00;99.90;;;;;;5006829;28;20049;-69
2022/05/13 06:55:47;;;;;;;12.65;1.80;;;14.00;99.90;;;;;;5023386;28;20162;-68
2022/05/13 06:58:14;;;;;;;18.98;2.17;;;14.00;99.90;;;;;;5022290;28;20046;-69
2022/05/13 07:00:44;;;;;;;13.30;2.00;;;13.90;99.90;;;;;;5023791;28;20099;-70
2022/05/13 07:03:13;;;;;;;21.23;2.50;;;13.90;99.90;;;;;;5023446;28;20022;-69
2022/05/13 07:05:39;;;;;;;23.88;2.58;;;13.80;99.90;;;;;;5029827;28;20025;-69
2022/05/13 07:08:05;;;;;;;14.55;2.03;;;13.90;99.90;;;;;;5042873;28;20022;-68
2022/05/13 07:10:30;;;;;;;16.77;2.67;;;14.00;99.90;;;;;;5027850;28;20059;-71
2022/05/13 07:12:56;;;;;;;18.08;2.97;;;14.20;99.90;;;;;;5025373;28;20376;-72
2022/05/13 07:15:22;;;;;;;25.63;2.65;;;14.40;99.90;;;;;;5027059;28;20026;-69
2022/05/13 07:17:48;;;;;;;21.50;2.45;;;14.50;99.70;;;;;;4997070;28;20105;-70
2022/05/13 07:20:15;;;;;;;14.85;2.47;;;14.70;99.50;;;;;;4986486;28;20022;-69
2022/05/13 07:22:40;;;;;;;13.65;1.95;;;14.80;99.20;;;;;;5004183;28;20022;-69
2022/05/13 07:25:07;;;;;;;11.02;2.05;;;14.90;98.90;;;;;;5035548;28;20068;-74
2022/05/13 07:27:33;;;;;;;15.57;2.05;;;14.90;98.50;;;;;;5010261;28;20030;-72
2022/05/13 07:29:59;;;;;;;15.20;3.28;;;15.00;98.60;;;;;;5015393;28;20017;-71
2022/05/13 07:32:24;;;;;;;16.65;2.45;;;15.10;98.50;;;;;;5013368;28;20114;-71
2022/05/13 07:34:50;;;;;;;13.85;1.98;;;15.30;98.10;;;;;;5035620;28;20060;-70
2022/05/13 07:37:16;;;;;;;17.80;2.72;;;15.30;97.30;;;;;;5017373;28;20069;-68
2022/05/13 07:42:27;;;;;;;13.38;1.85;;;15.30;97.10;;;;;;5010040;28;20026;-69
2022/05/13 07:44:53;;;;;;;11.93;1.92;;;15.20;97.00;;;;;;5006336;28;20037;-71
2022/05/13 07:47:20;;;;;;;12.07;2.45;;;15.20;97.20;;;;;;5008006;28;20056;-70
2022/05/13 07:49:46;;;;;;;12.07;1.95;;;15.20;96.60;;;;;;5025322;28;20018;-71
2022/05/13 07:52:12;;;;;;;10.20;1.85;;;15.10;97.10;;;;;;5025411;28;20032;-69
2022/05/13 07:54:38;;;;;;;23.35;2.67;;;15.10;97.20;;;;;;5022393;28;20089;-68
2022/05/13 07:57:05;;;;;;;10.82;1.85;;;15.20;96.80;;;;;;5024877;28;20354;-68
2022/05/13 08:00:24;;;;;;;14.95;2.50;;;15.10;97.10;;;;;;5021227;28;20068;-69
2022/05/13 08:02:18;;;;;;;16.98;2.08;;;15.20;97.20;;;;;;5024585;28;20038;-71
2022/05/13 08:04:44;;;;;;;10.48;2.38;;;15.40;96.10;;;;;;5025600;28;20025;-70
2022/05/13 08:07:10;;;;;;;11.60;1.58;;;15.50;96.30;;;;;;5043952;28;20033;-72
2022/05/13 08:09:36;;;;;;;21.30;2.53;;;15.40;94.90;;;;;;5038198;28;20036;-71
2022/05/13 08:12:01;;;;;;;18.90;2.38;;;15.40;95.20;;;;;;5008069;28;20018;-72
2022/05/13 08:14:27;;;;;;;20.88;2.60;;;15.50;95.60;;;;;;5026281;28;20088;-69
2022/05/13 08:16:55;;;;;;;17.05;2.03;;;15.70;95.50;;;;;;5007620;28;20386;-70
2022/05/13 08:19:23;;;;;;;10.27;2.03;;;15.80;94.80;;;;;;5025483;28;20037;-69
2022/05/13 08:21:49;;;;;;;16.38;2.20;;;15.90;95.20;;;;;;5024537;28;20036;-68
2022/05/13 08:24:15;;;;;;;11.52;1.73;;;16.10;95.10;;;;;;5026938;28;20021;-69
2022/05/13 08:26:41;;;;;;;16.05;2.10;;;16.30;94.40;;;;;;5009307;28;20032;-69
2022/05/13 08:29:06;;;;;;;11.25;1.65;;;16.20;93.90;;;;;;5009090;28;20018;-72
2022/05/13 08:31:32;;;;;;;17.75;2.70;;;16.00;93.40;;;;;;5025550;28;20224;-69
2022/05/13 08:33:59;;;;;;;7.25;1.58;;;15.90;93.50;;;;;;5024777;28;20029;-71
2022/05/13 08:36:25;;;;;;;14.43;1.90;;;15.80;92.90;;;;;;5008473;28;20025;-69
2022/05/13 08:38:51;;;;;;;14.55;2.28;;;15.80;93.30;;;;;;5024205;28;20240;-70
2022/05/13 08:41:57;;;;;;;15.52;2.10;;;15.60;93.70;;;;;;5008109;28;20080;-70
2022/05/13 08:44:23;;;;;;;13.15;2.03;;;15.60;94.30;;;;;;4991854;28;20049;-72
2022/05/13 08:47:13;;;;;;;15.90;2.30;;;15.60;94.60;;;;;;4996932;28;20097;-73
2022/05/13 08:49:54;;;;;;;16.60;2.22;;;15.60;94.10;;;;;;4993973;28;20034;-71
2022/05/13 08:55:26;;;;;;;10.25;1.70;;;15.70;93.40;;;;;;5012693;28;20042;-71
2022/05/13 08:57:54;;;;;;;14.80;2.20;;;15.80;92.90;;;;;;5006687;28;20065;-71
2022/05/13 09:00:31;;;;;;;19.90;2.75;;;16.00;93.80;;;;;;5006833;28;20025;-70
2022/05/13 09:03:13;;;;;;;12.27;2.17;;;16.20;92.90;;;;;;5007129;28;20033;-69
2022/05/13 09:06:02;;;;;;;16.65;2.50;;;16.10;92.40;;;;;;5032515;28;20033;-72
2022/05/13 09:08:28;;;;;;;19.55;1.92;;;16.10;92.20;;;;;;5015512;28;20029;-72
2022/05/13 09:11:06;;;;;;;20.30;2.40;;;16.10;92.30;;;;;;5028490;28;20017;-72
2022/05/13 09:13:44;;;;;;;8.88;1.77;;;16.00;92.20;;;;;;5024596;28;20055;-73
2022/05/13 09:16:10;;;;;;;9.43;2.10;;;16.20;92.00;;;;;;5024181;28;20044;-71
2022/05/13 09:18:45;;;;;;;12.35;1.88;;;16.30;91.60;;;;;;5022235;28;20033;-73
2022/05/13 09:21:16;;;;;;;13.95;1.90;;;16.20;91.90;;;;;;5024879;28;20332;-72
2022/05/13 09:23:42;;;;;;;14.65;2.22;;;16.10;92.30;;;;;;5007153;28;20064;-71
2022/05/13 09:26:13;;;;;;;15.43;2.72;;;16.00;92.60;;;;;;5006356;28;20099;-72
2022/05/13 09:29:18;;;;;;;15.25;2.00;;;16.00;93.00;;;;;;5003908;28;20317;-71
2022/05/13 09:31:47;;;;;;;16.58;2.30;;;16.20;93.30;;;;;;4997408;28;20086;-70
2022/05/13 09:34:27;;;;;;;13.55;2.28;;;16.50;93.30;;;;;;4987727;28;20233;-72
2022/05/13 09:37:16;;;;;;;17.65;2.40;;;16.50;93.60;;;;;;4988797;28;20076;-71
2022/05/13 09:39:45;;;;;;;15.30;2.08;;;16.80;92.60;;;;;;5003770;28;20030;-73
2022/05/13 09:42:35;;;;;;;16.13;2.72;;;16.60;92.70;;;;;;4987653;28;20046;-73
2022/05/13 09:45:33;;;;;;;13.38;2.13;;;16.50;92.90;;;;;;5003510;28;20062;-71
2022/05/13 09:48:16;;;;;;;20.73;2.60;;;16.50;92.90;;;;;;5022315;28;20447;-71
2022/05/13 09:50:45;;;;;;;13.07;2.47;;;16.50;92.60;;;;;;5023292;28;20026;-71
2022/05/13 09:53:33;;;;;;;18.08;2.45;;;16.40;92.30;;;;;;5022664;28;20040;-71
2022/05/13 09:56:01;;;;;;;14.77;2.45;;;16.50;91.40;;;;;;5022660;28;20022;-71
2022/05/13 09:58:32;;;;;;;11.85;2.30;;;16.60;91.40;;;;;;5022551;28;20045;-72
2022/05/13 10:01:13;;;;;;;16.30;3.83;;;16.60;91.00;;;;;;5023046;28;20026;-71
2022/05/13 10:03:40;;;;;;;10.50;2.15;;;16.50;90.20;;;;;;5023719;28;20351;-70
2022/05/13 10:06:20;;;;;;;7.13;1.70;;;16.50;90.20;;;;;;5035404;28;20072;-71
2022/05/13 10:13:57;;;;;;;10.05;2.47;;;16.40;90.40;;;;;;5032331;28;20029;-71
2022/05/13 10:14:33;;;;;;;11.95;1.77;;;16.50;90.10;;;;;;5009132;28;20240;-71
2022/05/13 10:17:24;;;;;;;10.90;1.80;;;16.70;89.60;;;;;;5022711;28;20093;-72
2022/05/13 10:20:00;;;;;;;8.13;1.92;;;16.60;88.50;;;;;;5007820;28;20334;-72
2022/05/13 10:22:40;;;;;;;16.40;1.77;;;16.60;88.90;;;;;;5007191;28;20304;-72
2022/05/13 10:25:20;;;;;;;12.05;2.25;;;16.80;89.00;;;;;;5007895;28;20097;-75
2022/05/13 10:27:50;;;;;;;13.38;2.00;;;16.80;88.40;;;;;;5006242;28;20353;-72
2022/05/13 10:30:32;;;;;;;11.60;2.03;;;16.70;89.40;;;;;;5006064;28;20026;-71
2022/05/13 10:33:10;;;;;;;13.82;2.17;;;16.80;89.30;;;;;;4989934;28;20026;-72
2022/05/13 10:36:03;;;;;;;11.85;2.03;;;17.00;88.60;;;;;;5012337;28;20036;-72
2022/05/13 10:38:34;;;;;;;13.13;1.88;;;17.30;86.50;;;;;;5008682;28;20033;-73
2022/05/13 10:41:11;;;;;;;7.45;1.33;;;17.40;84.10;;;;;;5003013;28;20030;-71
2022/05/13 10:43:52;;;;;;;9.10;1.33;;;17.50;85.60;;;;;;5022777;28;20105;-73
2022/05/13 10:46:33;;;;;;;11.10;1.65;;;17.40;85.20;;;;;;5022466;28;20091;-71
2022/05/13 10:49:02;;;;;;;11.70;1.67;;;17.10;85.10;;;;;;5022838;28;20018;-69
2022/05/13 10:51:49;;;;;;;9.32;2.08;;;17.00;85.50;;;;;;4989677;28;20321;-70
2022/05/13 10:54:33;;;;;;;16.13;2.35;;;17.10;85.50;;;;;;5005546;28;20020;-70
2022/05/13 10:57:12;;;;;;;9.38;1.70;;;17.20;85.90;;;;;;4990013;28;20309;-69
2022/05/13 10:59:50;;;;;;;10.35;1.88;;;17.30;86.40;;;;;;5023237;28;20085;-70
2022/05/13 11:02:43;;;;;;;19.23;2.75;;;17.30;85.60;;;;;;5005942;28;20049;-71
2022/05/13 11:05:35;;;;;;;17.98;2.40;;;17.30;84.80;;;;;;5025790;28;20021;-70
2022/05/13 11:08:24;;;;;;;14.02;1.80;;;17.30;85.60;;;;;;5009939;28;20026;-71
2022/05/13 11:11:02;;;;;;;9.27;1.73;;;17.30;84.20;;;;;;4994339;28;20035;-69
2022/05/13 11:13:58;;;;;;;11.52;2.10;;;17.20;83.90;;;;;;4999544;28;20025;-68
2022/05/13 11:16:44;;;;;;;11.23;1.83;;;17.10;85.00;;;;;;5021566;28;20048;-69
2022/05/13 11:19:31;;;;;;;12.15;1.75;;;17.10;85.10;;;;;;5021381;28;20040;-69
2022/05/13 11:22:22;;;;;;;10.65;1.88;;;17.10;85.80;;;;;;5020187;28;20025;-66
2022/05/13 11:28:19;;;;;;;;;;;17.00;87.00;;;;;;5012684;28;20126;-65
2022/05/13 11:31:10;;;;;;;11.20;2.50;;;16.90;87.20;;;;;;5025611;28;20137;-64
2022/05/13 11:34:15;;;;;;;11.80;1.90;;;17.00;87.80;;;;;;5025550;28;20076;-66
2022/05/13 11:37:02;;;;;;;13.15;2.10;;;17.20;87.30;;;;;;5014966;28;20052;-66
2022/05/13 11:40:06;;;;;;;10.45;1.77;;;17.00;88.10;;;;;;4989586;28;20081;-66
2022/05/13 11:46:14;;;;;;;11.90;1.85;;;17.30;87.70;;;;;;5013708;28;20044;-67
2022/05/13 11:48:44;;;;;;;16.00;2.20;;;17.30;87.10;;;;;;5025118;28;20100;-66
2022/05/13 11:51:20;;;;;;;15.88;2.55;;;17.30;86.80;;;;;;5024466;28;20033;-67
2022/05/13 11:54:26;;;;;;;7.57;2.38;;;17.30;86.70;;;;;;5024864;28;20026;-66
2022/05/13 11:57:23;;;;;;;10.15;2.10;;;17.30;83.30;;;;;;5024798;28;20378;-66
2022/05/13 11:59:53;;;;;;;16.15;2.70;;;17.20;86.80;;;;;;5012688;28;20022;-65
2022/05/13 12:02:49;;;;;;;13.55;2.22;;;17.30;86.80;;;;;;5008042;28;20216;-65
2022/05/13 12:05:28;;;;;;;13.55;2.10;;;17.30;87.30;;;;;;5029249;28;20067;-63
2022/05/13 12:08:07;;;;;;;12.00;2.15;;;17.40;87.00;;;;;;5038730;28;20030;-65
2022/05/13 12:11:00;;;;;;;14.27;2.17;;;17.30;87.20;;;;;;5024623;28;20033;-65
2022/05/13 12:13:52;;;;;;;10.80;1.95;;;17.30;87.90;;;;;;5024364;28;20026;-67
2022/05/13 12:16:39;;;;;;;15.20;2.28;;;17.30;87.70;;;;;;5024923;28;20029;-65
2022/05/13 12:19:40;;;;;;;15.73;2.33;;;17.30;87.30;;;;;;5009935;28;20036;-65
2022/05/13 12:22:40;;;;;;;12.23;2.13;;;17.40;87.50;;;;;;5010376;28;20030;-64
2022/05/13 12:25:45;;;;;;;11.82;2.30;;;17.60;87.20;;;;;;5007373;28;20209;-65
2022/05/13 12:28:23;;;;;;;12.30;2.15;;;17.60;86.70;;;;;;5015320;28;20311;-65
2022/05/13 12:30:51;;;;;;;14.60;2.60;;;17.60;85.20;;;;;;5024667;28;20089;-65
2022/05/13 12:33:38;;;;;;;12.43;2.15;;;17.50;86.10;;;;;;5022803;28;20022;-66
2022/05/13 12:39:23;;;;;;;14.80;2.03;;;17.80;85.90;;;;;;5010695;28;20030;-66
2022/05/13 12:42:06;;;;;;;10.55;2.20;;;17.90;86.00;;;;;;5009731;28;20228;-66
2022/05/13 12:44:57;;;;;;;11.95;2.67;;;17.80;86.60;;;;;;5024212;28;20026;-65
2022/05/13 12:47:27;;;;;;;11.73;2.10;;;17.80;85.20;;;;;;5024255;28;20204;-65
2022/05/13 12:49:56;;;;;;;9.73;1.88;;;17.70;85.90;;;;;;5023507;28;20030;-66
2022/05/13 12:52:35;;;;;;;9.23;2.10;;;17.70;85.00;;;;;;5024657;28;20028;-66
2022/05/13 12:55:23;;;;;;;10.93;2.00;;;17.90;84.50;;;;;;5007783;28;20029;-66
2022/05/13 12:57:53;;;;;;;14.70;2.25;;;18.10;83.90;;;;;;5025039;28;20084;-68
2022/05/13 13:00:24;;;;;;;7.97;1.77;;;18.10;84.60;;;;;;5007296;28;20084;-67
2022/05/13 13:02:53;;;;;;;16.40;1.90;;;18.20;85.10;;;;;;4990661;28;20036;-66
2022/05/13 13:05:24;;;;;;;9.13;1.77;;;18.10;84.90;;;;;;5012118;28;20025;-67
2022/05/13 13:07:52;;;;;;;13.57;1.90;;;17.80;85.90;;;;;;5043581;28;20029;-66
2022/05/13 13:10:18;;;;;;;19.55;2.35;;;17.80;86.30;;;;;;5038626;28;20206;-66
2022/05/13 13:13:10;;;;;;;17.27;2.75;;;17.90;85.90;;;;;;5024276;28;20021;-67
2022/05/13 13:15:40;;;;;;;14.75;2.20;;;17.80;85.20;;;;;;5009834;28;20186;-65
2022/05/13 13:18:10;;;;;;;10.23;2.40;;;17.70;86.70;;;;;;5023990;28;20068;-65
2022/05/13 13:20:48;;;;;;;13.40;1.90;;;17.70;86.70;;;;;;5024492;28;20026;-67
2022/05/13 13:23:16;;;;;;;13.13;2.15;;;17.80;85.70;;;;;;5006905;28;20021;-68
2022/05/13 13:25:44;;;;;;;15.25;2.63;;;17.90;85.20;;;;;;5007386;28;20028;-68
2022/05/13 13:28:19;;;;;;;9.63;2.13;;;18.10;83.30;;;;;;5023137;28;20029;-68
2022/05/13 13:30:57;;;;;;;7.70;1.75;;;18.00;82.50;;;;;;5003513;28;20015;-68
2022/05/13 13:33:28;;;;;;;13.00;2.47;;;17.80;84.10;;;;;;5020365;28;20025;-67
2022/05/13 13:36:23;;;;;;;7.45;2.45;;;18.00;84.30;;;;;;5023749;28;20030;-69
2022/05/13 13:38:53;;;;;;;7.50;2.00;;;17.90;84.40;;;;;;5023287;28;20049;-66